Time;durP1;ratioP1;P1;durP2;ratioP2;P2;SDS_P1;SDS_P2;PMS_P1;PMS_P2;Temp;Humidity;BMP_temperature;BMP_pressure;BME280_temperature;BME280_humidity;BME280_pressure;Samples;Min_cycle;Max_cycle;Signal;HPM_P1;HPM_P2
2023/06/28 00:01:37;;;;;;;;;;;;;;;15.00;100.00;101877.81;4996687;28;19929;-71
2023/06/28 00:04:02;;;;;;;;;;;;;;;14.98;100.00;101881.66;5008334;28;19979;-71
2023/06/28 00:06:27;;;;;;;;;;;;;;;14.99;100.00;101876.09;4998804;28;20042;-70
2023/06/28 00:08:53;;;;;;;;;;;;;;;15.00;100.00;101871.56;4994137;28;20020;-71
2023/06/28 00:11:18;;;;;;;;;;;;;;;14.99;100.00;101873.41;4993623;28;19921;-71
2023/06/28 00:13:43;;;;;;;;;;;;;;;14.98;100.00;101878.94;4993359;28;19933;-70
2023/06/28 00:16:08;;;;;;;;;;;;;;;14.97;100.00;101874.53;4992457;28;20516;-71
2023/06/28 00:18:34;;;;;;;;;;;;;;;14.91;100.00;101867.78;4993044;28;20557;-71
2023/06/28 00:21:00;;;;;;;;;;;;;;;14.89;100.00;101876.97;5006205;28;20011;-70
2023/06/28 00:23:25;;;;;;;;;;;;;;;14.86;100.00;101878.09;4991491;28;19928;-71
2023/06/28 00:25:51;;;;;;;;;;;;;;;14.84;100.00;101871.94;4990518;28;19921;-71
2023/06/28 00:28:16;;;;;;;;;;;;;;;14.79;100.00;101875.03;4991926;28;19926;-70
2023/06/28 00:30:41;;;;;;;;;;;;;;;14.78;100.00;101870.59;5007706;28;20434;-71
2023/06/28 00:33:06;;;;;;;;;;;;;;;14.82;100.00;101872.06;4993990;28;19922;-71
2023/06/28 00:35:31;;;;;;;;;;;;;;;14.87;100.00;101877.09;4992861;28;19928;-71
2023/06/28 00:37:57;;;;;;;;;;;;;;;14.87;100.00;101877.09;4995488;28;19960;-71
2023/06/28 00:40:22;;;;;;;;;;;;;;;14.91;100.00;101881.28;4994298;28;20403;-71
2023/06/28 00:42:47;;;;;;;;;;;;;;;14.93;100.00;101882.03;5009567;28;20353;-70
2023/06/28 00:45:13;;;;;;;;;;;;;;;14.97;100.00;101883.47;5011835;28;19926;-71
2023/06/28 00:47:38;;;;;;;;;;;;;;;14.76;100.00;101844.66;5014145;28;19921;-71
2023/06/28 00:50:03;;;;;;;;;;;;;;;15.06;100.00;101891.84;5011345;28;19950;-70
2023/06/28 00:52:29;;;;;;;;;;;;;;;15.10;100.00;101887.91;4997603;28;19921;-71
2023/06/28 00:54:55;;;;;;;;;;;;;;;15.12;100.00;101884.09;5011775;28;20019;-70
2023/06/28 00:57:20;;;;;;;;;;;;;;;15.13;100.00;101882.25;4994172;28;19925;-70
2023/06/28 00:59:45;;;;;;;;;;;;;;;15.14;100.00;101884.81;4995871;28;20371;-70
2023/06/28 01:02:10;;;;;;;;;;;;;;;15.18;100.00;101884.59;5013440;28;19924;-71
2023/06/28 01:04:36;;;;;;;;;;;;;;;15.17;100.00;101885.56;5012211;28;19961;-70
2023/06/28 01:07:01;;;;;;;;;;;;;;;15.18;100.00;101881.88;5010859;28;20015;-70
2023/06/28 01:09:28;;;;;;;;;;;;;;;15.17;100.00;101883.75;5010770;28;19926;-71
2023/06/28 01:11:53;;;;;;;;;;;;;;;15.20;100.00;101877.22;5012129;28;20689;-69
2023/06/28 01:14:18;;;;;;;;;;;;;;;15.17;100.00;101874.75;4996163;28;19921;-70
2023/06/28 01:16:49;;;;;;;;;;;;;;;15.17;100.00;101872.91;4998471;28;19969;-71
2023/06/28 01:19:15;;;;;;;;;;;;;;;15.18;100.00;101874.63;5016504;28;20136;-69
2023/06/28 01:21:41;;;;;;;;;;;;;;;15.21;100.00;101878.94;4996256;28;19926;-70
2023/06/28 01:24:10;;;;;;;;;;;;;;;15.21;100.00;101868.09;4999408;28;19921;-71
2023/06/28 01:26:35;;;;;;;;;;;;;;;15.17;100.00;101863.94;5001919;28;19921;-70
2023/06/28 01:29:01;;;;;;;;;;;;;;;15.19;100.00;101865.53;5013193;28;19967;-70
2023/06/28 01:31:26;;;;;;;;;;;;;;;15.23;100.00;101868.84;5017158;28;20457;-71
2023/06/28 01:33:51;;;;;;;;;;;;;;;15.19;100.00;101865.53;5015468;28;20284;-70
2023/06/28 01:36:16;;;;;;;;;;;;;;;15.20;100.00;101866.38;5001381;28;20402;-71
2023/06/28 01:38:42;;;;;;;;;;;;;;;15.25;100.00;101866.88;4997620;28;20375;-71
2023/06/28 01:41:07;;;;;;;;;;;;;;;15.30;100.00;101861.97;5016668;28;19921;-69
2023/06/28 01:43:32;;;;;;;;;;;;;;;15.33;100.00;101869.81;5021549;28;20163;-70
2023/06/28 01:45:57;;;;;;;;;;;;;;;15.34;100.00;101863.44;5006545;28;20016;-70
2023/06/28 01:48:23;;;;;;;;;;;;;;;15.30;100.00;101865.50;5016299;28;19960;-69
2023/06/28 01:50:48;;;;;;;;;;;;;;;15.29;100.00;101873.75;5018878;28;20011;-70
2023/06/28 01:53:13;;;;;;;;;;;;;;;15.29;100.00;101871.91;5000355;28;19921;-70
2023/06/28 01:55:38;;;;;;;;;;;;;;;15.29;100.00;101877.31;5014751;28;19925;-69
2023/06/28 01:58:03;;;;;;;;;;;;;;;15.26;100.00;101877.56;5016909;28;19921;-70
2023/06/28 02:00:29;;;;;;;;;;;;;;;15.22;100.00;101872.53;5014154;28;19921;-71
2023/06/28 02:02:54;;;;;;;;;;;;;;;15.20;100.00;101879.91;5013675;28;19921;-69
2023/06/28 02:05:20;;;;;;;;;;;;;;;15.19;100.00;101873.66;4996705;28;19921;-71
2023/06/28 02:07:46;;;;;;;;;;;;;;;15.21;100.00;101865.41;5000080;28;19940;-69
2023/06/28 02:10:12;;;;;;;;;;;;;;;15.23;100.00;101879.66;4997240;28;19922;-70
2023/06/28 02:12:37;;;;;;;;;;;;;;;15.21;100.00;101873.53;4997492;28;20279;-71
2023/06/28 02:15:02;;;;;;;;;;;;;;;15.22;100.00;101875.25;5019562;28;19921;-70
2023/06/28 02:17:27;;;;;;;;;;;;;;;15.21;100.00;101876.22;4997326;28;19925;-71
2023/06/28 02:19:53;;;;;;;;;;;;;;;15.19;100.00;101873.66;4978923;28;19921;-71
2023/06/28 02:22:19;;;;;;;;;;;;;;;15.19;100.00;101873.66;4997829;28;19921;-70
2023/06/28 02:24:44;;;;;;;;;;;;;;;15.16;100.00;101873.91;4998231;28;19956;-70
2023/06/28 02:27:09;;;;;;;;;;;;;;;15.14;100.00;101871.31;4999646;28;19929;-71
2023/06/28 02:29:35;;;;;;;;;;;;;;;15.10;100.00;101872.53;4997056;28;19929;-69
2023/06/28 02:32:00;;;;;;;;;;;;;;;15.08;100.00;101869.13;4998306;28;19996;-70
2023/06/28 02:34:25;;;;;;;;;;;;;;;15.05;100.00;101865.78;5010956;28;20568;-70
2023/06/28 02:36:50;;;;;;;;;;;;;;;14.99;100.00;101868.00;5014281;28;19927;-69
2023/06/28 02:39:16;;;;;;;;;;;;;;;15.00;100.00;101866.16;4995741;28;19960;-70
2023/06/28 02:41:41;;;;;;;;;;;;;;;14.99;100.00;101864.44;4996060;28;20439;-70
2023/06/28 02:44:06;;;;;;;;;;;;;;;14.89;100.00;101836.41;4999039;28;20447;-69
2023/06/28 02:46:31;;;;;;;;;;;;;;;15.00;100.00;101864.31;4997687;28;20455;-70
2023/06/28 02:48:56;;;;;;;;;;;;;;;15.00;100.00;101861.59;4997577;28;20003;-70
2023/06/28 02:51:22;;;;;;;;;;;;;;;14.96;100.00;101862.81;4999123;28;19941;-69
2023/06/28 02:53:47;;;;;;;;;;;;;;;14.93;100.00;101864.94;4999858;28;19922;-70
2023/06/28 02:56:15;;;;;;;;;;;;;;;14.87;100.00;101857.31;4998244;28;19917;-70
2023/06/28 02:58:40;;;;;;;;;;;;;;;14.81;100.00;101862.25;4999589;28;20419;-69
2023/06/28 03:01:07;;;;;;;;;;;;;;;14.80;100.00;101860.53;4998846;28;19928;-70
2023/06/28 03:03:34;;;;;;;;;;;;;;;14.81;100.00;101856.84;4992075;28;20605;-70
2023/06/28 03:05:59;;;;;;;;;;;;;;;14.85;100.00;101857.44;4997325;28;19921;-69
2023/06/28 03:08:24;;;;;;;;;;;;;;;14.83;100.00;101860.25;4998725;28;19968;-70
2023/06/28 03:10:49;;;;;;;;;;;;;;;14.83;100.00;101862.09;4997728;28;19936;-70
2023/06/28 03:13:15;;;;;;;;;;;;;;;14.80;100.00;101860.53;4991722;28;19957;-69
2023/06/28 03:15:40;;;;;;;;;;;;;;;14.74;100.00;101855.59;5000269;28;19957;-70
2023/06/28 03:18:05;;;;;;;;;;;;;;;14.72;100.00;101856.69;5000349;28;20023;-70
2023/06/28 03:20:30;;;;;;;;;;;;;;;14.69;100.00;101855.97;4998472;28;20011;-69
2023/06/28 03:22:56;;;;;;;;;;;;;;;14.70;100.00;101854.97;5013689;28;20055;-70
2023/06/28 03:25:21;;;;;;;;;;;;;;;14.75;100.00;101851.91;4997068;28;20403;-70
2023/06/28 03:27:46;;;;;;;;;;;;;;;14.79;100.00;101852.50;4997497;28;20406;-69
2023/06/28 03:30:11;;;;;;;;;;;;;;;14.80;100.00;101856.94;4994789;28;20004;-70
2023/06/28 03:32:37;;;;;;;;;;;;;;;14.81;100.00;101855.97;4994588;28;19925;-70
2023/06/28 03:35:02;;;;;;;;;;;;;;;14.77;100.00;101854.47;4999247;28;20335;-69
2023/06/28 03:37:28;;;;;;;;;;;;;;;14.68;100.00;101854.25;5011946;28;19964;-70
2023/06/28 03:39:53;;;;;;;;;;;;;;;14.64;100.00;101844.63;5002017;28;19983;-70
2023/06/28 03:42:18;;;;;;;;;;;;;;;14.59;100.00;101845.94;5002942;28;19952;-69
2023/06/28 03:44:43;;;;;;;;;;;;;;;14.59;100.00;101840.53;5002576;28;20008;-70
2023/06/28 03:47:08;;;;;;;;;;;;;;;14.53;100.00;101841.91;5002387;28;19921;-69
2023/06/28 03:49:34;;;;;;;;;;;;;;;14.46;100.00;101843.34;4997768;28;19979;-69
2023/06/28 03:51:59;;;;;;;;;;;;;;;14.45;100.00;101838.94;4996725;28;19925;-70
2023/06/28 03:54:25;;;;;;;;;;;;;;;14.39;100.00;101841.16;4997629;28;20383;-70
2023/06/28 03:56:51;;;;;;;;;;;;;;;14.28;100.00;101842.97;4998436;28;19921;-69
2023/06/28 03:59:16;;;;;;;;;;;;;;;14.24;100.00;101840.50;4995330;28;19929;-70
2023/06/28 04:01:41;;;;;;;;;;;;;;;14.10;100.00;101841.56;4992467;28;20321;-70
2023/06/28 04:04:06;;;;;;;;;;;;;;;14.15;100.00;101846.63;4996426;28;20265;-69
2023/06/28 04:06:31;;;;;;;;;;;;;;;14.16;100.00;101844.78;4998672;28;20844;-70
2023/06/28 04:08:57;;;;;;;;;;;;;;;14.19;100.00;101842.69;4999305;28;20395;-70
2023/06/28 04:11:22;;;;;;;;;;;;;;;14.16;100.00;101836.69;5015558;28;19921;-69
2023/06/28 04:13:47;;;;;;;;;;;;;;;14.13;100.00;101842.31;4998113;28;20256;-70
2023/06/28 04:16:12;;;;;;;;;;;;;;;14.15;100.00;101837.66;4995583;28;19921;-70
2023/06/28 04:18:37;;;;;;;;;;;;;;;14.13;100.00;101837.78;4995186;28;19975;-69
2023/06/28 04:21:03;;;;;;;;;;;;;;;14.13;100.00;101840.47;5014587;28;20008;-69
2023/06/28 04:23:28;;;;;;;;;;;;;;;14.17;100.00;101844.66;5012072;28;19921;-70
2023/06/28 04:25:53;;;;;;;;;;;;;;;14.21;100.00;101842.56;4999837;28;20462;-69
2023/06/28 04:28:18;;;;;;;;;;;;;;;14.16;100.00;101842.09;4999707;28;20467;-70
2023/06/28 04:30:43;;;;;;;;;;;;;;;14.19;100.00;101849.94;4995437;28;19925;-69
2023/06/28 04:33:09;;;;;;;;;;;;;;;14.16;100.00;101851.03;4994215;28;20004;-70
2023/06/28 04:35:35;;;;;;;;;;;;;;;14.10;100.00;101846.97;4997061;28;20061;-69
2023/06/28 04:38:03;;;;;;;;;;;;;;;14.12;100.00;101844.16;4996030;28;19921;-69
2023/06/28 04:40:29;;;;;;;;;;;;;;;14.05;100.00;101851.88;4995708;28;19917;-70
2023/06/28 04:42:54;;;;;;;;;;;;;;;14.00;100.00;101848.66;4996603;28;19921;-70
2023/06/28 04:45:19;;;;;;;;;;;;;;;14.06;100.00;101850.00;4994931;28;20126;-70
2023/06/28 04:47:44;;;;;;;;;;;;;;;14.04;100.00;101850.16;4998210;28;20489;-70
2023/06/28 04:50:10;;;;;;;;;;;;;;;14.04;100.00;101852.84;4991390;28;19952;-70
2023/06/28 04:52:35;;;;;;;;;;;;;;;14.02;100.00;101853.94;4990018;28;20009;-70
2023/06/28 04:55:00;;;;;;;;;;;;;;;14.00;100.00;101847.81;4996240;28;19928;-70
2023/06/28 04:57:25;;;;;;;;;;;;;;;14.04;100.00;101852.84;5010431;28;19944;-70
2023/06/28 04:59:51;;;;;;;;;;;;;;;14.14;100.00;101844.91;4994017;28;19984;-69
2023/06/28 05:02:16;;;;;;;;;;;;;;;14.14;100.00;101844.91;4995561;28;19960;-70
2023/06/28 05:04:41;;;;;;;;;;;;;;;14.12;100.00;101843.31;4992627;28;19969;-70
2023/06/28 05:07:07;;;;;;;;;;;;;;;14.16;100.00;101844.78;5010437;28;20435;-70
2023/06/28 05:09:33;;;;;;;;;;;;;;;14.25;100.00;101846.75;4990676;28;20584;-70
2023/06/28 05:11:58;;;;;;;;;;;;;;;14.33;100.00;101843.44;4993163;28;19921;-70
2023/06/28 05:14:24;;;;;;;;;;;;;;;14.35;100.00;101841.50;4993727;28;20431;-69
2023/06/28 05:16:50;;;;;;;;;;;;;;;14.36;100.00;101841.41;5009559;28;19921;-70
2023/06/28 05:19:15;;;;;;;;;;;;;;;14.35;100.00;101847.78;4992636;28;20264;-70
2023/06/28 05:21:40;;;;;;;;;;;;;;;14.38;100.00;101849.38;4994220;28;20291;-69
2023/06/28 05:24:05;;;;;;;;;;;;;;;14.38;100.00;101847.53;4995326;28;20295;-70
2023/06/28 05:26:31;;;;;;;;;;;;;;;14.36;100.00;101844.09;4991135;28;20328;-70
2023/06/28 05:28:56;;;;;;;;;;;;;;;14.37;100.00;101847.66;4993699;28;20044;-69
2023/06/28 05:31:21;;;;;;;;;;;;;;;14.34;100.00;101850.59;4991920;28;21386;-70
2023/06/28 05:33:46;;;;;;;;;;;;;;;14.37;100.00;101847.66;4994110;28;20051;-70
2023/06/28 05:36:12;;;;;;;;;;;;;;;14.36;100.00;101856.72;4998093;28;20230;-69
2023/06/28 05:38:37;;;;;;;;;;;;;;;14.35;100.00;101855.00;5012774;28;19926;-70
2023/06/28 05:41:12;;;;;;;;;;;;;;;14.29;100.00;101850.09;4996892;28;19928;-70
2023/06/28 05:43:38;;;;;;;;;;;;;;;14.11;100.00;101850.53;5007405;28;19929;-71
2023/06/28 05:46:03;;;;;;;;;;;;;;;14.04;100.00;101850.16;4992485;28;20747;-71
2023/06/28 05:48:32;;;;;;;;;;;;;;;14.01;100.00;101844.97;4986875;28;19929;-71
2023/06/28 05:50:58;;;;;;;;;;;;;;;13.98;100.00;101847.06;4998617;28;20319;-70
2023/06/28 05:53:23;;;;;;;;;;;;;;;14.02;100.00;101849.41;4993827;28;20519;-70
2023/06/28 05:55:49;;;;;;;;;;;;;;;14.05;100.00;101848.28;4997480;28;19953;-71
2023/06/28 05:58:15;;;;;;;;;;;;;;;14.06;100.00;101842.78;4993645;28;20429;-70
2023/06/28 06:00:40;;;;;;;;;;;;;;;14.09;100.00;101847.97;4991899;28;19945;-70
2023/06/28 06:03:06;;;;;;;;;;;;;;;14.13;100.00;101845.03;4991819;28;20036;-71
2023/06/28 06:05:31;;;;;;;;;;;;;;;14.10;100.00;101848.81;4989391;28;19961;-70
2023/06/28 06:07:56;;;;;;;;;;;;;;;14.14;100.00;101844.91;4993530;28;19925;-71
2023/06/28 06:10:21;;;;;;;;;;;;;;;14.17;100.00;101841.13;4989707;28;19976;-71
2023/06/28 06:12:47;;;;;;;;;;;;;;;14.23;100.00;101837.91;5005736;28;20592;-71
2023/06/28 06:15:12;;;;;;;;;;;;;;;14.27;100.00;101838.56;4991204;28;20560;-71
2023/06/28 06:17:37;;;;;;;;;;;;;;;14.38;100.00;101833.16;5000845;28;20435;-71
2023/06/28 06:20:04;;;;;;;;;;;;;;;14.40;100.00;101842.00;4995127;28;19921;-71
2023/06/28 06:22:29;;;;;;;;;;;;;;;14.47;100.00;101829.75;4993080;28;19929;-71
2023/06/28 06:24:55;;;;;;;;;;;;;;;14.47;100.00;101829.75;5010379;28;19921;-70
2023/06/28 06:27:21;;;;;;;;;;;;;;;14.45;100.00;101836.22;4989836;28;20016;-71
2023/06/28 06:29:46;;;;;;;;;;;;;;;14.47;100.00;101834.28;5007855;28;20396;-71
2023/06/28 06:32:11;;;;;;;;;;;;;;;14.49;100.00;101853.94;5007849;28;19984;-71
2023/06/28 06:34:36;;;;;;;;;;;;;;;14.50;100.00;101844.84;5004632;28;20020;-71
2023/06/28 06:37:02;;;;;;;;;;;;;;;14.48;100.00;101844.97;5006241;28;19931;-70
2023/06/28 06:39:27;;;;;;;;;;;;;;;14.47;100.00;101842.38;4989886;28;20289;-67
2023/06/28 06:41:52;;;;;;;;;;;;;;;14.56;100.00;101844.38;4991164;28;19928;-70
2023/06/28 06:44:17;;;;;;;;;;;;;;;14.58;100.00;101839.69;5003181;28;19921;-70
2023/06/28 06:46:43;;;;;;;;;;;;;;;14.62;100.00;101840.31;5005227;28;19921;-70
2023/06/28 06:49:08;;;;;;;;;;;;;;;14.63;100.00;101850.13;4989890;28;20004;-71
2023/06/28 06:51:33;;;;;;;;;;;;;;;14.43;100.00;101814.75;5005120;28;20297;-70
2023/06/28 06:53:58;;;;;;;;;;;;;;;14.63;100.00;101836.63;4994741;28;19995;-71
2023/06/28 06:56:24;;;;;;;;;;;;;;;14.72;100.00;101845.88;5008024;28;19921;-71
2023/06/28 06:58:50;;;;;;;;;;;;;;;14.80;100.00;101843.44;5006449;28;19966;-71
2023/06/28 07:01:15;;;;;;;;;;;;;;;14.79;100.00;101844.41;4993759;28;19925;-70
2023/06/28 07:03:40;;;;;;;;;;;;;;;14.91;100.00;101847.97;4970901;28;20540;-70
2023/06/28 07:06:05;;;;;;;;;;;;;;;14.96;100.00;101843.06;4995105;28;20426;-70
2023/06/28 07:08:31;;;;;;;;;;;;;;;15.00;100.00;101842.66;4991945;28;19964;-70
2023/06/28 07:10:56;;;;;;;;;;;;;;;15.17;100.00;101835.06;4993154;28;19960;-70
2023/06/28 07:13:21;;;;;;;;;;;;;;;15.28;100.00;101840.41;4990613;28;20277;-70
2023/06/28 07:15:46;;;;;;;;;;;;;;;15.33;100.00;101837.34;4991811;28;19922;-71
2023/06/28 07:18:11;;;;;;;;;;;;;;;15.36;100.00;101834.38;4989192;28;21017;-70
2023/06/28 07:20:37;;;;;;;;;;;;;;;15.44;100.00;101831.06;4988076;28;19921;-71
2023/06/28 07:23:02;;;;;;;;;;;;;;;15.58;100.00;101832.63;5007860;28;20024;-70
2023/06/28 07:25:27;;;;;;;;;;;;;;;15.72;100.00;101832.31;4991768;28;20552;-71
2023/06/28 07:27:53;;;;;;;;;;;;;;;15.77;100.00;101831.06;4988433;28;20336;-71
2023/06/28 07:30:18;;;;;;;;;;;;;;;15.87;100.00;101830.19;5004776;28;20352;-71
2023/06/28 07:32:43;;;;;;;;;;;;;;;15.91;100.00;101836.19;4985178;28;20360;-70
2023/06/28 07:35:08;;;;;;;;;;;;;;;15.85;100.00;101839.41;4989577;28;20541;-70
2023/06/28 07:37:33;;;;;;;;;;;;;;;15.86;100.00;101839.28;4991599;28;20346;-70
2023/06/28 07:39:59;;;;;;;;;;;;;;;15.98;100.00;101842.81;4991862;28;20027;-70
2023/06/28 07:42:24;;;;;;;;;;;;;;;16.08;100.00;101837.47;5012890;28;20043;-71
2023/06/28 07:44:49;;;;;;;;;;;;;;;16.00;100.00;101845.41;4993047;28;19921;-72
2023/06/28 07:47:15;;;;;;;;;;;;;;;15.85;100.00;101845.66;4999302;28;19921;-71
2023/06/28 07:49:42;;;;;;;;;;;;;;;15.85;100.00;101851.06;4994906;28;19921;-71
2023/06/28 07:52:07;;;;;;;;;;;;;;;15.94;100.00;101843.22;4997255;28;19932;-71
2023/06/28 07:54:32;;;;;;;;;;;;;;;15.91;100.00;101849.72;5011281;28;19922;-70
2023/06/28 07:56:57;;;;;;;;;;;;;;;15.98;100.00;101847.38;4993181;28;19925;-70
2023/06/28 07:59:23;;;;;;;;;;;;;;;16.03;100.00;101850.53;4993638;28;19967;-70
2023/06/28 08:01:49;;;;;;;;;;;;;;;15.95;100.00;101840.34;5010950;28;20008;-70
2023/06/28 08:04:17;;;;;;;;;;;;;;;16.00;100.00;101837.28;4993834;28;19921;-71
2023/06/28 08:06:45;;;;;;;;;;;;;;;15.97;100.00;101826.69;4995512;28;20482;-71
2023/06/28 08:09:11;;;;;;;;;;;;;;;16.01;100.00;101834.41;4996265;28;19933;-72
2023/06/28 08:11:36;;;;;;;;;;;;;;;15.98;100.00;101831.97;4988074;28;19925;-74
2023/06/28 08:14:02;;;;;;;;;;;;;;;15.84;100.00;101833.13;5002920;28;19933;-71
2023/06/28 08:16:27;;;;;;;;;;;;;;;15.73;100.00;101835.88;4991405;28;20295;-71
2023/06/28 08:18:52;;;;;;;;;;;;;;;15.83;100.00;101839.50;4992827;28;20060;-71
2023/06/28 08:21:18;;;;;;;;;;;;;;;15.88;100.00;101840.03;4991968;28;20052;-71
2023/06/28 08:23:43;;;;;;;;;;;;;;;16.04;100.00;101836.88;4987849;28;19942;-71
2023/06/28 08:26:08;;;;;;;;;;;;;;;16.15;100.00;101841.38;4991672;28;19975;-71
2023/06/28 08:28:33;;;;;;;;;;;;;;;16.24;100.00;101842.41;4992311;28;19936;-71
2023/06/28 08:30:59;;;;;;;;;;;;;;;16.26;100.00;101843.16;4985423;28;20012;-71
2023/06/28 08:33:24;;;;;;;;;;;;;;;16.22;100.00;101840.84;4988709;28;19926;-71
2023/06/28 08:35:49;;;;;;;;;;;;;;;16.21;100.00;101833.72;5008084;28;19968;-72
2023/06/28 08:38:15;;;;;;;;;;;;;;;16.25;100.00;101837.88;4992812;28;19925;-71
2023/06/28 08:40:40;;;;;;;;;;;;;;;16.30;100.00;101835.59;4992409;28;20439;-72
2023/06/28 08:43:05;;;;;;;;;;;;;;;16.38;100.00;101838.50;4994308;28;20651;-71
2023/06/28 08:45:32;;;;;;;;;;;;;;;16.45;100.00;101833.41;5007736;28;19921;-72
2023/06/28 08:47:57;;;;;;;;;;;;;;;16.41;100.00;101834.69;4996113;28;20056;-71
2023/06/28 08:50:22;;;;;;;;;;;;;;;16.44;100.00;101834.41;4993624;28;21754;-71
2023/06/28 08:52:48;;;;;;;;;;;;;;;16.50;100.00;101828.44;4993758;28;19921;-71
2023/06/28 08:55:13;;;;;;;;;;;;;;;16.54;100.00;101837.19;5009447;28;20386;-71
2023/06/28 08:57:39;;;;;;;;;;;;;;;16.49;100.00;101835.75;4995508;28;19921;-71
2023/06/28 09:00:06;;;;;;;;;;;;;;;16.51;100.00;101837.47;4991718;28;19925;-71
2023/06/28 09:02:33;;;;;;;;;;;;;;;16.60;100.00;101825.78;4994447;28;20725;-71
2023/06/28 09:04:58;;;;;;;;;;;;;;;16.60;100.00;101817.66;5010492;28;19925;-75
2023/06/28 09:07:23;;;;;;;;;;;;;;;16.60;100.00;101828.50;4989279;28;19936;-72
2023/06/28 09:09:49;;;;;;;;;;;;;;;16.61;100.00;101820.25;4987732;28;19926;-71
2023/06/28 09:12:14;;;;;;;;;;;;;;;16.71;100.00;101819.41;4987939;28;19960;-71
2023/06/28 09:14:40;;;;;;;;;;;;;;;16.96;100.00;101823.56;5003776;28;19944;-71
2023/06/28 09:17:05;;;;;;;;;;;;;;;16.98;100.00;101827.00;4989204;28;19965;-71
2023/06/28 09:19:30;;;;;;;;;;;;;;;17.02;100.00;101822.13;4988160;28;19921;-71
2023/06/28 09:22:02;;;;;;;;;;;;;;;17.02;100.00;101820.28;4988559;28;19959;-70
2023/06/28 09:24:31;;;;;;;;;;;;;;;17.08;100.00;101818.88;4987685;28;19921;-71
2023/06/28 09:26:59;;;;;;;;;;;;;;;17.05;100.00;101814.59;4986843;28;19958;-71
2023/06/28 09:29:24;;;;;;;;;;;;;;;17.01;100.00;101813.16;5004387;28;20295;-71
2023/06/28 09:31:49;;;;;;;;;;;;;;;17.00;100.00;101811.44;4991346;28;19921;-73
2023/06/28 09:34:20;;;;;;;;;;;;;;;17.07;100.00;101811.72;4989869;28;21388;-74
2023/06/28 09:36:48;;;;;;;;;;;;;;;17.03;100.00;101813.00;4989790;28;20675;-71
2023/06/28 09:39:13;;;;;;;;;;;;;;;17.08;100.00;101811.56;5006731;28;19971;-72
2023/06/28 09:41:39;;;;;;;;;;;;;;;17.09;100.00;101818.72;4993859;28;19921;-72
2023/06/28 09:44:04;;;;;;;;;;;;;;;17.20;100.00;101822.31;4995540;28;19978;-72
2023/06/28 09:46:31;;;;;;;;;;;;;;;17.18;100.00;101811.63;4991709;28;20307;-73
2023/06/28 09:48:57;;;;;;;;;;;;;;;17.32;100.00;101825.78;4987863;28;19937;-73
2023/06/28 09:51:22;;;;;;;;;;;;;;;17.36;100.00;101817.22;4992314;28;19930;-71
2023/06/28 09:53:58;;;;;;;;;;;;;;;17.34;100.00;101818.34;5006708;28;19921;-73
2023/06/28 09:56:38;;;;;;;;;;;;;;;17.36;100.00;101821.78;5006797;28;19921;-73
2023/06/28 09:59:05;;;;;;;;;;;;;;;17.53;100.00;101822.97;4983948;28;19935;-73
2023/06/28 10:01:30;;;;;;;;;;;;;;;17.60;100.00;101815.97;4988571;28;19960;-73
2023/06/28 10:03:56;;;;;;;;;;;;;;;17.68;100.00;101815.25;5006156;28;20359;-71
2023/06/28 10:06:21;;;;;;;;;;;;;;;17.71;100.00;101814.09;4990363;28;19952;-73
2023/06/28 10:08:46;;;;;;;;;;;;;;;17.71;100.00;101806.81;5009044;28;19983;-71
2023/06/28 10:11:15;;;;;;;;;;;;;;;17.78;100.00;101804.38;5012592;28;19971;-73
2023/06/28 10:13:41;;;;;;;;;;;;;;;18.06;100.00;101804.53;5011124;28;20399;-72
2023/06/28 10:16:09;;;;;;;;;;;;;;;18.06;100.00;101802.66;5013797;28;19922;-77
2023/06/28 10:18:35;;;;;;;;;;;;;;;18.02;100.00;101803.09;5014733;28;20337;-74
2023/06/28 10:21:00;;;;;;;;;;;;;;;18.29;100.00;101799.59;4995755;28;20433;-74
2023/06/28 10:23:25;;;;;;;;;;;;;;;18.73;100.00;101801.75;4997402;28;20374;-72
2023/06/28 10:25:51;;;;;;;;;;;;;;;18.94;100.00;101797.91;5012613;28;19956;-74
2023/06/28 10:28:16;;;;;;;;;;;;;;;19.20;100.00;101794.53;5011251;28;19934;-72
2023/06/28 10:30:41;;;;;;;;;;;;;;;19.52;100.00;101794.00;4996058;28;19925;-73
2023/06/28 10:33:07;;;;;;;;;;;;;;;19.66;100.00;101789.88;5011833;28;19964;-74
2023/06/28 10:35:32;;;;;;;;;;;;;;;19.53;100.00;101789.41;4996038;28;19929;-72
2023/06/28 10:37:58;;;;;;;;;;;;;;;19.70;100.00;101785.84;4997819;28;19921;-73
2023/06/28 10:40:23;;;;;;;;;;;;;;;20.02;100.00;101789.00;4996460;28;19921;-72
2023/06/28 10:42:49;;;;;;;;;;;;;;;19.97;100.00;101794.06;4994341;28;19921;-72
2023/06/28 10:45:14;;;;;;;;;;;;;;;19.73;100.00;101792.81;4996713;28;19917;-72
2023/06/28 10:47:55;;;;;;;;;;;;;;;19.89;100.00;101800.31;5013808;28;19921;-72
2023/06/28 10:50:22;;;;;;;;;;;;;;;19.95;100.00;101791.50;5010477;28;20311;-73
2023/06/28 10:52:57;;;;;;;;;;;;;;;20.30;100.00;101784.25;5012876;28;20012;-74
2023/06/28 10:55:29;;;;;;;;;;;;;;;20.55;100.00;101778.91;4993945;28;19925;-72
2023/06/28 10:58:05;;;;;;;;;;;;;;;20.45;100.00;101773.59;4992514;28;19922;-72
2023/06/28 11:00:30;;;;;;;;;;;;;;;20.57;100.00;101774.16;4995666;28;19922;-74
2023/06/28 11:03:03;;;;;;;;;;;;;;;20.51;100.00;101775.66;4997479;28;19966;-74
2023/06/28 11:05:44;;;;;;;;;;;;;;;20.41;100.00;101782.25;4996925;28;19928;-74
2023/06/28 11:08:10;;;;;;;;;;;;;;;20.36;100.00;101778.16;4996820;28;20045;-71
2023/06/28 11:10:45;;;;;;;;;;;;;;;20.33;100.00;101778.47;4996768;28;20012;-74
2023/06/28 11:13:11;;;;;;;;;;;;;;;20.50;100.00;101771.22;4995923;28;20375;-72
2023/06/28 11:15:44;;;;;;;;;;;;;;;20.21;100.00;101775.16;4993018;28;19928;-73
2023/06/28 11:18:11;;;;;;;;;;;;;;;20.27;100.00;101768.19;5011568;28;19975;-72
2023/06/28 11:20:59;;;;;;;;;;;;;;;20.21;100.00;101771.59;4995314;28;19921;-72
2023/06/28 11:23:38;;;;;;;;;;;;;;;20.49;100.00;101755.03;4990636;28;19921;-75
2023/06/28 11:26:04;;;;;;;;;;;;;;;20.43;100.00;101733.88;4994022;28;19973;-75
2023/06/28 11:28:30;;;;;;;;;;;;;;;20.67;100.00;101760.38;5012246;28;20691;-72
2023/06/28 11:30:55;;;;;;;;;;;;;;;20.66;100.00;101751.38;4994472;28;20280;-74
2023/06/28 11:33:23;;;;;;;;;;;;;;;20.68;100.00;101759.38;4989357;28;19957;-75
2023/06/28 11:35:49;;;;;;;;;;;;;;;20.64;100.00;101758.84;4995716;28;20325;-71
2023/06/28 11:38:15;;;;;;;;;;;;;;;20.85;100.00;101756.75;4997451;28;19960;-71
2023/06/28 11:40:40;;;;;;;;;;;;;;;20.95;100.00;101755.59;4998146;28;20348;-72
2023/06/28 11:43:05;;;;;;;;;;;;;;;21.42;100.00;101759.63;4994737;28;19930;-75
2023/06/28 11:45:32;;;;;;;;;;;;;;;21.43;100.00;101761.31;5014100;28;19928;-72
2023/06/28 11:47:57;;;;;;;;;;;;;;;21.68;100.00;101755.91;4993686;28;20490;-75
2023/06/28 11:50:22;;;;;;;;;;;;;;;21.52;100.00;101755.84;4992130;28;20376;-75
2023/06/28 11:52:48;;;;;;;;;;;;;;;21.76;100.00;101756.91;4995218;28;20362;-74
2023/06/28 11:55:14;;;;;;;;;;;;;;;21.73;100.00;101752.66;5011408;28;20373;-74
2023/06/28 11:57:44;;;;;;;;;;;;;;;21.70;100.00;101755.72;4998652;28;19925;-72
2023/06/28 12:00:09;;;;;;;;;;;;;;;21.52;100.00;101758.56;4992367;28;19968;-74
2023/06/28 12:02:45;;;;;;;;;;;;;;;21.38;100.00;101755.50;5004647;28;20355;-76
2023/06/28 12:05:10;;;;;;;;;;;;;;;21.50;100.00;101756.03;5006611;28;20008;-72
2023/06/28 12:07:36;;;;;;;;;;;;;;;21.49;100.00;101757.06;4994730;28;19927;-73
2023/06/28 12:10:01;;;;;;;;;;;;;;;21.72;100.00;101757.25;5011314;28;19948;-72
2023/06/28 12:12:33;;;;;;;;;;;;;;;21.98;100.00;101755.34;5012124;28;19925;-71
2023/06/28 12:14:58;;;;;;;;;;;;;;;22.24;100.00;101754.28;5011583;28;19928;-72
2023/06/28 12:17:23;;;;;;;;;;;;;;;22.31;100.00;101752.56;4997912;28;19917;-72
2023/06/28 12:19:49;;;;;;;;;;;;;;;22.20;100.00;101753.78;5001468;28;20013;-73
2023/06/28 12:22:14;;;;;;;;;;;;;;;21.91;100.00;101749.72;4998314;28;19964;-71